Time;durP1;ratioP1;P1;durP2;ratioP2;P2;SDS_P1;SDS_P2;PMS_P1;PMS_P2;Temp;Humidity;BMP_temperature;BMP_pressure;BME280_temperature;BME280_humidity;BME280_pressure;Samples;Min_cycle;Max_cycle;Signal;HPM_P1;HPM_P2
2020/12/31 00:00:17;;;;;;;67.67;30.45;;;;;;;3.85;87.01;98133.94;119270;1150;65114;-78
2020/12/31 00:02:59;;;;;;;63.55;27.70;;;;;;;3.82;86.95;98134.07;119250;1150;65223;-79
2020/12/31 00:05:26;;;;;;;56.10;31.23;;;;;;;3.75;87.18;98136.20;119228;1149;65124;-78
2020/12/31 00:07:52;;;;;;;52.70;28.43;;;;;;;3.72;87.07;98144.27;119219;1150;65300;-78
2020/12/31 00:10:18;;;;;;;52.20;28.75;;;;;;;3.65;86.83;98135.83;119239;1150;65117;-79
2020/12/31 00:12:45;;;;;;;53.50;30.55;;;;;;;3.63;87.27;98140.31;119024;1150;65209;-79
2020/12/31 00:15:12;;;;;;;51.97;28.57;;;;;;;3.63;87.30;98140.31;118957;1150;65119;-79
2020/12/31 00:17:38;;;;;;;55.47;29.87;;;;;;;3.67;87.01;98154.20;119267;1150;65257;-79
2020/12/31 00:20:07;;;;;;;57.07;29.53;;;;;;;3.69;87.40;98147.92;119020;1151;65170;-79
2020/12/31 00:22:33;;;;;;;63.83;31.63;;;;;;;3.70;87.19;98154.03;119284;1149;65098;-79
2020/12/31 00:25:00;;;;;;;70.47;32.70;;;;;;;3.66;87.37;98148.08;119232;1150;65098;-79
2020/12/31 00:27:26;;;;;;;69.00;34.67;;;;;;;3.68;87.18;98151.47;119271;1149;65168;-79
2020/12/31 00:29:53;;;;;;;53.70;29.47;;;;;;;3.66;87.13;98153.35;119203;1150;65193;-78
2020/12/31 00:32:19;;;;;;;55.87;31.33;;;;;;;3.64;87.50;98149.09;119263;1150;65167;-77
2020/12/31 00:34:45;;;;;;;49.60;27.83;;;;;;;3.66;87.31;98155.98;119280;1148;65128;-79
2020/12/31 00:37:12;;;;;;;48.27;28.23;;;;;;;3.69;87.18;98150.55;119181;1150;65115;-76
2020/12/31 00:39:38;;;;;;;47.37;26.80;;;;;;;3.72;87.32;98142.48;119053;1149;65098;-76
2020/12/31 00:42:05;;;;;;;53.17;28.47;;;;;;;3.78;87.29;98145.73;119054;1151;65063;-78
2020/12/31 00:44:31;;;;;;;51.33;26.80;;;;;;;3.77;86.92;98142.25;119225;1150;65136;-76
2020/12/31 00:46:58;;;;;;;47.53;27.93;;;;;;;3.77;87.11;98144.03;119195;1150;65238;-77
2020/12/31 00:49:24;;;;;;;46.68;27.20;;;;;;;3.77;87.33;98149.30;119226;1149;65201;-77
2020/12/31 00:51:51;;;;;;;54.40;28.70;;;;;;;3.79;87.44;98156.20;119268;1149;65120;-76
2020/12/31 00:54:17;;;;;;;44.97;25.63;;;;;;;3.80;86.78;98155.25;119173;1150;65187;-75
2020/12/31 00:56:43;;;;;;;46.60;25.30;;;;;;;3.86;86.99;98146.16;119270;1150;65117;-76
2020/12/31 00:59:10;;;;;;;44.87;25.60;;;;;;;3.82;86.82;98149.88;119233;1150;65120;-78
2020/12/31 01:01:37;;;;;;;47.90;24.80;;;;;;;3.80;87.00;98147.35;119139;1149;65114;-78
2020/12/31 01:04:03;;;;;;;42.13;25.67;;;;;;;3.75;86.26;98152.02;119281;1151;65110;-77
2020/12/31 01:06:37;;;;;;;51.50;25.30;;;;;;;3.71;86.94;98160.99;119259;1149;65098;-78
2020/12/31 01:09:08;;;;;;;43.67;25.20;;;;;;;3.61;86.54;98147.47;119282;1150;66372;-78
2020/12/31 01:11:36;;;;;;;43.75;25.85;;;;;;;3.58;86.86;98152.91;119257;1150;65123;-75
2020/12/31 01:14:04;;;;;;;44.87;24.43;;;;;;;3.54;86.53;98156.62;119069;1151;65121;-76
2020/12/31 01:16:31;;;;;;;39.13;23.60;;;;;;;3.46;86.57;98154.38;119231;1151;65179;-77
2020/12/31 01:18:57;;;;;;;33.77;21.53;;;;;;;3.38;86.67;98153.08;119225;1150;65114;-77
2020/12/31 01:21:25;;;;;;;37.10;21.93;;;;;;;3.31;86.59;98149.89;118981;1151;65587;-77
2020/12/31 01:23:51;;;;;;;38.37;21.77;;;;;;;3.33;86.66;98150.67;119241;1150;65117;-76
2020/12/31 01:26:30;;;;;;;36.90;20.87;;;;;;;3.32;86.65;98148.11;119263;1150;65111;-77
2020/12/31 01:28:56;;;;;;;38.25;19.40;;;;;;;3.23;86.44;98145.02;119280;1150;65098;-76
2020/12/31 01:31:23;;;;;;;32.80;18.80;;;;;;;3.16;86.72;98159.44;119206;1150;65101;-79
2020/12/31 01:33:49;;;;;;;31.53;19.10;;;;;;;3.12;87.18;98157.88;119229;1150;65682;-77
2020/12/31 01:36:16;;;;;;;29.95;18.40;;;;;;;3.05;86.80;98159.98;119231;1149;65123;-77
2020/12/31 01:38:42;;;;;;;31.33;18.17;;;;;;;3.06;87.10;98164.30;119261;1150;65197;-77
2020/12/31 01:41:09;;;;;;;34.07;19.60;;;;;;;3.10;86.78;98166.78;119224;1150;65162;-77
2020/12/31 01:43:35;;;;;;;34.35;20.25;;;;;;;3.12;86.90;98170.19;119226;1150;65194;-77
2020/12/31 01:46:01;;;;;;;34.33;19.73;;;;;;;3.19;87.14;98172.45;119240;1150;65098;-77
2020/12/31 01:48:28;;;;;;;36.70;20.17;;;;;;;3.18;86.67;98177.77;119236;1150;65139;-77
2020/12/31 01:50:55;;;;;;;34.25;19.70;;;;;;;3.17;86.58;98184.83;119255;1150;65564;-77
2020/12/31 01:53:22;;;;;;;39.95;20.20;;;;;;;3.13;86.75;98187.68;119210;1151;65225;-77
2020/12/31 01:55:48;;;;;;;33.97;19.13;;;;;;;3.05;86.51;98182.80;119224;1149;65344;-77
2020/12/31 01:58:15;;;;;;;31.75;17.60;;;;;;;2.96;86.58;98186.73;119231;1151;65111;-77
2020/12/31 02:00:41;;;;;;;32.77;18.33;;;;;;;2.90;86.57;98188.80;119243;1150;65111;-77
2020/12/31 02:03:08;;;;;;;28.50;18.00;;;;;;;2.85;86.18;98197.80;119259;1150;65094;-78
2020/12/31 02:05:35;;;;;;;26.73;17.03;;;;;;;2.77;86.34;98197.31;119203;1150;65197;-77
2020/12/31 02:08:01;;;;;;;31.30;18.67;;;;;;;2.76;86.61;98208.75;119204;1150;65120;-77
2020/12/31 02:10:28;;;;;;;36.83;19.33;;;;;;;2.70;86.35;98210.83;119017;1151;65118;-76
2020/12/31 02:12:56;;;;;;;31.83;18.60;;;;;;;2.66;86.25;98218.03;119221;1150;65107;-76
2020/12/31 02:15:22;;;;;;;33.63;16.83;;;;;;;2.60;86.37;98227.03;119233;1150;65073;-76
2020/12/31 02:17:48;;;;;;;27.13;16.63;;;;;;;2.57;86.73;98228.97;119002;1151;65236;-78
2020/12/31 02:20:15;;;;;;;28.65;16.95;;;;;;;2.52;86.46;98231.80;119136;1150;65156;-76
2020/12/31 02:22:41;;;;;;;30.20;18.30;;;;;;;2.49;86.99;98225.84;119252;1150;65255;-76
2020/12/31 02:25:08;;;;;;;31.00;18.27;;;;;;;2.48;86.70;98227.63;119112;1150;65127;-77
2020/12/31 02:27:34;;;;;;;36.90;19.23;;;;;;;2.52;87.22;98223.91;118972;1150;65190;-76
2020/12/31 02:30:01;;;;;;;36.70;18.17;;;;;;;2.54;87.45;98224.70;119228;1149;65083;-78
2020/12/31 02:32:27;;;;;;;36.50;19.27;;;;;;;2.60;87.28;98220.93;119063;1149;65474;-76
2020/12/31 02:34:54;;;;;;;37.47;20.07;;;;;;;2.64;87.12;98214.61;119253;1150;65132;-76
2020/12/31 02:37:20;;;;;;;36.93;18.63;;;;;;;2.64;87.00;98215.46;119255;1150;65137;-77
2020/12/31 02:39:46;;;;;;;29.85;19.10;;;;;;;2.61;87.22;98214.77;119232;1150;65564;-79
2020/12/31 02:42:13;;;;;;;35.95;19.77;;;;;;;2.58;87.03;98209.62;119236;1150;65156;-79
2020/12/31 02:44:39;;;;;;;28.23;16.93;;;;;;;2.52;86.94;98210.77;119237;1150;65236;-79
2020/12/31 02:47:06;;;;;;;29.97;17.87;;;;;;;2.45;86.63;98206.73;119260;1150;65120;-77
2020/12/31 02:49:32;;;;;;;33.17;18.63;;;;;;;2.49;87.44;98210.07;119201;1150;65296;-77
2020/12/31 02:51:59;;;;;;;32.55;18.90;;;;;;;2.60;87.24;98216.52;119273;1149;65091;-77
2020/12/31 02:54:25;;;;;;;36.90;19.33;;;;;;;2.63;87.38;98216.39;119267;1150;65050;-77
2020/12/31 02:56:51;;;;;;;34.30;19.40;;;;;;;2.72;87.58;98211.63;119224;1150;65226;-77
2020/12/31 02:59:18;;;;;;;36.33;19.43;;;;;;;2.73;87.57;98203.64;119262;1150;65223;-78
2020/12/31 03:01:44;;;;;;;32.63;20.43;;;;;;;2.72;87.28;98215.09;119224;1150;65117;-78
2020/12/31 03:04:10;;;;;;;33.40;20.10;;;;;;;2.67;87.10;98211.83;119243;1149;65148;-76
2020/12/31 03:06:37;;;;;;;28.27;17.40;;;;;;;2.61;87.13;98222.66;119258;1151;65175;-78
2020/12/31 03:09:03;;;;;;;30.37;17.93;;;;;;;2.61;87.27;98220.88;119259;1150;65110;-78
2020/12/31 03:11:30;;;;;;;28.33;17.27;;;;;;;2.61;87.27;98220.02;119238;1150;65098;-77
2020/12/31 03:13:56;;;;;;;33.20;18.97;;;;;;;2.60;87.04;98219.14;119211;1150;65175;-76
2020/12/31 03:16:23;;;;;;;29.07;17.33;;;;;;;2.58;86.97;98218.39;119248;1150;65087;-76
2020/12/31 03:18:49;;;;;;;33.50;18.63;;;;;;;2.52;86.88;98221.28;119254;1149;65105;-76
2020/12/31 03:21:16;;;;;;;34.55;16.97;;;;;;;2.55;87.34;98218.51;119227;1150;65199;-76
2020/12/31 03:23:42;;;;;;;28.90;17.27;;;;;;;2.53;86.35;98214.27;119267;1150;65099;-76
2020/12/31 03:26:09;;;;;;;29.00;16.30;;;;;;;2.51;86.88;98216.97;119297;1149;65130;-76
2020/12/31 03:28:35;;;;;;;29.10;17.13;;;;;;;2.48;86.70;98209.22;119017;1150;65120;-77
2020/12/31 03:31:02;;;;;;;28.00;17.17;;;;;;;2.51;86.82;98216.12;119041;1150;65252;-77
2020/12/31 03:33:28;;;;;;;26.17;15.73;;;;;;;2.52;87.00;98208.13;119255;1150;65135;-76
2020/12/31 03:35:55;;;;;;;31.48;17.82;;;;;;;2.53;86.78;98203.76;119250;1149;65499;-78
2020/12/31 03:38:22;;;;;;;33.90;17.80;;;;;;;2.51;86.89;98200.34;119292;1150;65130;-78
2020/12/31 03:40:49;;;;;;;33.40;17.50;;;;;;;2.41;86.73;98199.91;119252;1149;65580;-77
2020/12/31 03:43:16;;;;;;;34.20;17.13;;;;;;;2.35;86.97;98194.94;119237;1149;65208;-77
2020/12/31 03:45:42;;;;;;;35.07;19.83;;;;;;;2.31;86.91;98199.47;119207;1151;65189;-78
2020/12/31 03:48:10;;;;;;;29.90;17.70;;;;;;;2.25;86.78;98196.29;119221;1151;65149;-76
2020/12/31 03:50:38;;;;;;;28.67;18.10;;;;;;;2.13;86.79;98190.68;119226;1150;65114;-76
2020/12/31 03:53:06;;;;;;;31.70;17.63;;;;;;;2.11;87.18;98192.52;119264;1151;65104;-76
2020/12/31 03:55:32;;;;;;;27.00;17.65;;;;;;;2.15;87.54;98196.69;119211;1150;65184;-79
2020/12/31 03:58:00;;;;;;;32.80;17.15;;;;;;;2.20;86.89;98199.97;119213;1150;65133;-78
2020/12/31 04:00:26;;;;;;;38.43;18.70;;;;;;;2.20;86.97;98217.52;119242;1149;65098;-78
2020/12/31 04:02:53;;;;;;;36.43;18.67;;;;;;;2.20;87.37;98226.25;119248;1150;65060;-78
2020/12/31 04:05:19;;;;;;;31.63;17.17;;;;;;;2.24;87.20;98239.25;119184;1150;65210;-78
2020/12/31 04:07:46;;;;;;;29.20;15.50;;;;;;;2.27;87.01;98236.52;118629;1151;65241;-78
2020/12/31 04:10:12;;;;;;;31.07;17.60;;;;;;;2.26;87.22;98235.63;118957;1150;65660;-77
2020/12/31 04:12:39;;;;;;;25.90;16.43;;;;;;;2.33;87.41;98236.22;118933;1151;65548;-80
2020/12/31 04:15:05;;;;;;;27.43;16.43;;;;;;;2.32;86.93;98237.16;119208;1150;65213;-79
2020/12/31 04:17:31;;;;;;;28.80;17.83;;;;;;;2.31;87.10;98231.02;119292;1150;65104;-77
2020/12/31 04:19:58;;;;;;;30.27;17.87;;;;;;;2.33;86.77;98230.96;119257;1149;65121;-77
2020/12/31 04:22:24;;;;;;;31.67;20.27;;;;;;;2.33;87.40;98234.44;119251;1149;65104;-77
2020/12/31 04:24:51;;;;;;;35.63;18.92;;;;;;;2.35;86.93;98234.38;119251;1150;65223;-77
2020/12/31 04:27:19;;;;;;;39.15;18.40;;;;;;;2.31;87.25;98231.02;119224;1150;65178;-78
2020/12/31 04:29:45;;;;;;;29.33;17.20;;;;;;;2.26;86.80;98234.79;119241;1149;65449;-78
2020/12/31 04:32:12;;;;;;;21.23;14.43;;;;;;;2.26;86.80;98232.16;119226;1149;65490;-76
2020/12/31 04:34:38;;;;;;;23.77;15.27;;;;;;;2.24;86.84;98229.62;119257;1150;65571;-77
2020/12/31 04:37:04;;;;;;;25.03;16.27;;;;;;;2.25;87.00;98239.20;119274;1150;65573;-77
2020/12/31 04:39:31;;;;;;;26.17;16.47;;;;;;;2.33;87.82;98231.81;119227;1149;65087;-77
2020/12/31 04:41:58;;;;;;;28.63;16.50;;;;;;;2.40;87.54;98233.24;119290;1150;65137;-77
2020/12/31 04:44:25;;;;;;;35.25;17.70;;;;;;;2.35;87.11;98237.86;119227;1150;65056;-77
2020/12/31 04:46:57;;;;;;;41.05;17.52;;;;;;;2.36;86.90;98241.34;119261;1149;65079;-76
2020/12/31 04:49:42;;;;;;;32.43;17.87;;;;;;;2.34;86.85;98241.42;119212;1150;65035;-76
2020/12/31 04:52:09;;;;;;;28.97;16.00;;;;;;;2.30;86.82;98246.88;119224;1151;65180;-76
2020/12/31 04:54:39;;;;;;;24.87;14.20;;;;;;;2.26;86.63;98242.67;119233;1150;65139;-77
2020/12/31 04:57:06;;;;;;;23.90;15.20;;;;;;;2.22;86.85;98249.02;119240;1149;65200;-78
2020/12/31 04:59:34;;;;;;;22.63;16.10;;;;;;;2.19;86.80;98250.00;119256;1151;65108;-78
2020/12/31 05:02:01;;;;;;;29.47;17.63;;;;;;;2.16;86.80;98243.11;118810;1151;65589;-78
2020/12/31 05:04:27;;;;;;;31.90;17.15;;;;;;;2.15;87.19;98244.01;118673;1151;65159;-78
2020/12/31 05:06:54;;;;;;;32.70;15.90;;;;;;;2.17;87.01;98252.69;119216;1150;65118;-79
2020/12/31 05:09:22;;;;;;;38.43;18.90;;;;;;;2.14;87.43;98255.45;119156;1150;65089;-79
2020/12/31 05:11:52;;;;;;;30.37;17.73;;;;;;;2.13;87.09;98247.63;119059;1148;65146;-78
2020/12/31 05:14:28;;;;;;;31.97;16.48;;;;;;;2.10;87.22;98248.61;119281;1150;65198;-78
2020/12/31 05:16:55;;;;;;;31.05;18.75;;;;;;;2.09;87.41;98246.07;119250;1150;65034;-77
2020/12/31 05:19:23;;;;;;;24.70;16.60;;;;;;;2.05;86.59;98242.70;118985;1151;65191;-79
2020/12/31 05:22:11;;;;;;;26.90;17.75;;;;;;;2.05;87.08;98253.22;119241;1149;65051;-78
2020/12/31 05:24:39;;;;;;;29.27;17.77;;;;;;;2.03;87.09;98262.09;119307;1150;65140;-76
2020/12/31 05:27:23;;;;;;;28.50;18.15;;;;;;;2.08;87.72;98258.37;119250;1149;65107;-79
2020/12/31 05:29:54;;;;;;;33.67;19.37;;;;;;;2.12;87.00;98253.81;119228;1150;65561;-79
2020/12/31 05:32:22;;;;;;;40.03;17.83;;;;;;;2.08;87.37;98260.12;119273;1150;65204;-76
2020/12/31 05:34:49;;;;;;;32.30;17.90;;;;;;;2.05;86.92;98258.48;119231;1149;65164;-77
2020/12/31 05:37:16;;;;;;;27.93;17.03;;;;;;;2.02;86.71;98265.66;119229;1150;65274;-77
2020/12/31 05:40:00;;;;;;;29.17;17.13;;;;;;;1.91;87.10;98268.75;119234;1150;65099;-77
2020/12/31 05:42:31;;;;;;;26.47;15.83;;;;;;;1.88;86.89;98259.23;119232;1150;65056;-77
2020/12/31 05:45:05;;;;;;;30.15;17.55;;;;;;;1.87;87.31;98249.66;119300;1150;65034;-78
2020/12/31 05:47:34;;;;;;;30.37;18.57;;;;;;;1.81;86.68;98252.53;119231;1150;65127;-78
2020/12/31 05:50:01;;;;;;;28.40;17.00;;;;;;;1.77;87.03;98258.00;119233;1150;65031;-78
2020/12/31 05:52:35;;;;;;;31.75;17.50;;;;;;;1.79;87.53;98261.39;119289;1150;65159;-78
2020/12/31 05:55:04;;;;;;;29.90;18.05;;;;;;;1.75;87.08;98256.28;119221;1151;65121;-78
2020/12/31 05:57:55;;;;;;;29.77;17.13;;;;;;;1.75;87.21;98247.55;119198;1151;65125;-77
2020/12/31 06:00:24;;;;;;;31.75;18.80;;;;;;;1.73;87.04;98249.38;119098;1150;65185;-77
2020/12/31 06:02:53;;;;;;;38.07;18.93;;;;;;;1.71;86.81;98254.72;119264;1150;65118;-77
2020/12/31 06:05:21;;;;;;;27.00;15.93;;;;;;;1.71;87.61;98253.84;119273;1150;65188;-77
2020/12/31 06:07:53;;;;;;;32.30;17.93;;;;;;;1.74;86.89;98258.98;119274;1150;65097;-77
2020/12/31 06:10:24;;;;;;;25.33;16.20;;;;;;;1.74;86.97;98262.47;119150;1150;65131;-77
2020/12/31 06:12:51;;;;;;;27.07;15.37;;;;;;;1.71;86.94;98277.48;118780;1149;65587;-79
2020/12/31 06:15:32;;;;;;;26.77;14.77;;;;;;;1.67;86.98;98273.30;118668;1150;65117;-76
2020/12/31 06:18:01;;;;;;;22.95;14.30;;;;;;;1.64;86.82;98276.91;118976;1150;65570;-77
2020/12/31 06:20:30;;;;;;;24.80;13.97;;;;;;;1.59;86.84;98272.77;119227;1150;65121;-79
2020/12/31 06:23:00;;;;;;;20.90;13.25;;;;;;;1.53;86.68;98282.61;119280;1151;65088;-77
2020/12/31 06:25:36;;;;;;;23.33;14.50;;;;;;;1.54;87.03;98278.20;119232;1150;65111;-79
2020/12/31 06:28:16;;;;;;;21.87;13.47;;;;;;;1.56;86.94;98275.53;119030;1151;65184;-77
2020/12/31 06:30:48;;;;;;;23.10;14.55;;;;;;;1.56;87.14;98279.00;119212;1149;65147;-79
2020/12/31 06:33:22;;;;;;;30.85;15.10;;;;;;;1.57;86.72;98271.97;119012;1151;65111;-78
2020/12/31 06:35:58;;;;;;;36.03;17.17;;;;;;;1.57;86.70;98280.70;119233;1150;65124;-78
2020/12/31 06:38:39;;;;;;;30.87;16.67;;;;;;;1.57;86.91;98275.45;119007;1150;65113;-76
2020/12/31 06:41:31;;;;;;;31.20;17.03;;;;;;;1.54;87.26;98278.20;119217;1150;65117;-78
2020/12/31 06:44:07;;;;;;;33.67;17.77;;;;;;;1.56;87.06;98278.16;119208;1150;65130;-80
2020/12/31 06:46:41;;;;;;;29.03;17.00;;;;;;;1.59;87.18;98283.27;119252;1150;65184;-78
2020/12/31 06:49:08;;;;;;;34.33;18.50;;;;;;;1.63;87.23;98279.58;119252;1151;65115;-80
2020/12/31 06:51:35;;;;;;;33.75;17.00;;;;;;;1.65;87.04;98277.75;119189;1151;65170;-78
2020/12/31 06:54:03;;;;;;;27.83;15.67;;;;;;;1.63;87.02;98277.80;119181;1151;65171;-77
2020/12/31 06:56:46;;;;;;;33.73;17.70;;;;;;;1.60;86.78;98282.34;119236;1150;65099;-78
2020/12/31 06:59:30;;;;;;;37.93;17.70;;;;;;;1.54;86.96;98275.58;119268;1150;65111;-78
2020/12/31 07:02:01;;;;;;;36.77;18.70;;;;;;;1.56;87.42;98273.75;119305;1150;65147;-78
2020/12/31 07:04:35;;;;;;;32.50;18.10;;;;;;;1.58;87.18;98281.55;119287;1149;65133;-78
2020/12/31 07:07:25;;;;;;;28.90;16.05;;;;;;;1.63;87.24;98285.69;119275;1150;65192;-78
2020/12/31 07:09:57;;;;;;;31.47;17.53;;;;;;;1.70;87.35;98283.66;119276;1150;65166;-78
2020/12/31 07:12:39;;;;;;;31.60;18.27;;;;;;;1.80;87.46;98278.88;119203;1151;65146;-78
2020/12/31 07:15:08;;;;;;;26.50;15.60;;;;;;;1.81;86.72;98275.32;119064;1150;65105;-78
2020/12/31 07:17:44;;;;;;;33.50;17.90;;;;;;;1.76;86.55;98280.77;119226;1150;65091;-77
2020/12/31 07:20:17;;;;;;;28.60;16.50;;;;;;;1.77;87.23;98286.90;118925;1150;65187;-79
2020/12/31 07:22:47;;;;;;;28.55;17.75;;;;;;;1.80;87.13;98284.14;119244;1150;65130;-79
2020/12/31 07:25:16;;;;;;;31.50;16.90;;;;;;;1.81;86.92;98277.95;119270;1150;65136;-79
2020/12/31 07:27:45;;;;;;;38.87;19.93;;;;;;;1.79;86.88;98283.29;118838;1150;65108;-77
2020/12/31 07:30:21;;;;;;;25.50;15.63;;;;;;;1.71;85.93;98296.75;118980;1150;65102;-77
2020/12/31 07:32:52;;;;;;;29.05;15.50;;;;;;;1.58;86.12;98300.81;119318;1150;65175;-79
2020/12/31 07:35:26;;;;;;;25.60;15.80;;;;;;;1.51;86.38;98301.97;119249;1151;65172;-79
2020/12/31 07:38:06;;;;;;;35.57;18.83;;;;;;;1.52;86.75;98293.16;119208;1151;65137;-77
2020/12/31 07:40:32;;;;;;;;;;;;;;;1.56;87.08;98289.51;119107;1150;65124;-79
2020/12/31 07:42:59;;;;;;;39.40;19.87;;;;;;;1.61;86.78;98290.17;118732;1150;65210;-77
2020/12/31 07:45:27;;;;;;;35.43;19.07;;;;;;;1.64;86.53;98299.69;118863;1151;65137;-79
2020/12/31 07:47:54;;;;;;;33.73;19.27;;;;;;;1.70;87.08;98291.55;118740;1149;65145;-78
2020/12/31 07:50:22;;;;;;;37.50;19.07;;;;;;;1.76;86.79;98296.53;118863;1150;65121;-77
2020/12/31 07:52:49;;;;;;;39.05;20.60;;;;;;;1.83;86.90;98302.39;118787;1150;65117;-78
2020/12/31 07:55:17;;;;;;;38.43;21.90;;;;;;;1.87;86.62;98298.69;118715;1150;65127;-78
2020/12/31 07:57:43;;;;;;;31.50;18.15;;;;;;;1.91;86.73;98295.03;118660;1150;65222;-78
2020/12/31 08:00:15;;;;;;;41.03;20.20;;;;;;;1.94;86.54;98293.11;118767;1151;65182;-78
2020/12/31 08:02:51;;;;;;;36.93;17.97;;;;;;;1.98;86.82;98297.33;118752;1150;65108;-77
2020/12/31 08:05:19;;;;;;;45.50;24.33;;;;;;;2.00;86.87;98293.77;119099;1150;65033;-77
2020/12/31 08:07:58;;;;;;;45.17;23.10;;;;;;;2.02;86.78;98294.56;119244;1150;65124;-77
2020/12/31 08:10:25;;;;;;;41.70;21.67;;;;;;;2.01;86.61;98301.59;119260;1150;65221;-77
2020/12/31 08:12:59;;;;;;;40.20;21.30;;;;;;;2.07;87.00;98295.22;119226;1150;65117;-79
2020/12/31 08:15:26;;;;;;;36.73;19.83;;;;;;;2.10;86.33;98303.81;119250;1150;65105;-79
2020/12/31 08:17:55;;;;;;;39.77;20.77;;;;;;;2.09;86.41;98301.27;119265;1150;65136;-79
2020/12/31 08:20:24;;;;;;;43.85;21.70;;;;;;;2.11;86.52;98309.95;119261;1150;65261;-77
2020/12/31 08:23:00;;;;;;;44.65;22.00;;;;;;;2.22;86.69;98304.21;119269;1150;65223;-77
2020/12/31 08:25:33;;;;;;;46.93;22.63;;;;;;;2.26;86.36;98313.66;119300;1151;65114;-77
2020/12/31 08:28:04;;;;;;;48.83;23.67;;;;;;;2.26;86.45;98319.76;119264;1150;65118;-77
2020/12/31 08:30:32;;;;;;;47.57;24.13;;;;;;;2.32;86.37;98318.66;119282;1151;65195;-78
2020/12/31 08:32:59;;;;;;;50.23;23.40;;;;;;;2.40;85.92;98317.39;119311;1150;65153;-77
2020/12/31 08:35:31;;;;;;;50.90;23.55;;;;;;;2.41;85.64;98319.09;118969;1150;65083;-78
2020/12/31 08:38:12;;;;;;;46.45;21.85;;;;;;;2.45;85.66;98318.94;119023;1151;65142;-78
2020/12/31 08:40:48;;;;;;;43.95;22.25;;;;;;;2.47;85.40;98325.84;119065;1150;65213;-77
2020/12/31 08:43:21;;;;;;;42.65;22.00;;;;;;;2.40;85.73;98332.32;118979;1151;65133;-77
2020/12/31 08:45:50;;;;;;;45.37;23.50;;;;;;;2.36;85.60;98325.47;119211;1150;65046;-77
2020/12/31 08:48:30;;;;;;;53.53;27.23;;;;;;;2.35;85.80;98334.30;119247;1150;65308;-79
2020/12/31 08:50:58;;;;;;;48.37;25.53;;;;;;;2.30;85.68;98331.86;119218;1150;65197;-79
2020/12/31 08:53:27;;;;;;;53.37;27.00;;;;;;;2.30;86.03;98334.49;119292;1150;65182;-78
2020/12/31 08:55:55;;;;;;;48.45;26.40;;;;;;;2.35;86.05;98331.67;119282;1150;65124;-78
2020/12/31 08:58:30;;;;;;;43.87;23.53;;;;;;;2.39;85.99;98333.22;119253;1150;65114;-78
2020/12/31 09:00:57;;;;;;;53.37;26.13;;;;;;;2.45;86.19;98332.09;119210;1151;65165;-78
2020/12/31 09:03:25;;;;;;;49.50;24.95;;;;;;;2.54;86.21;98337.80;119271;1150;65098;-78
2020/12/31 09:05:58;;;;;;;38.17;22.10;;;;;;;2.62;86.14;98335.67;119224;1150;65127;-78
2020/12/31 09:08:32;;;;;;;50.40;25.15;;;;;;;2.67;85.60;98327.58;119264;1150;65149;-78
2020/12/31 09:11:03;;;;;;;42.17;22.43;;;;;;;2.75;86.03;98332.50;119222;1150;65129;-77
2020/12/31 09:13:37;;;;;;;52.10;27.93;;;;;;;2.80;85.32;98333.14;119302;1150;65140;-77
2020/12/31 09:16:14;;;;;;;37.75;20.45;;;;;;;2.79;85.29;98336.67;119274;1151;65124;-77
2020/12/31 09:18:42;;;;;;;39.73;21.10;;;;;;;2.76;85.14;98339.45;119286;1150;65140;-77
2020/12/31 09:21:09;;;;;;;40.87;23.77;;;;;;;2.76;84.94;98340.30;119286;1150;65122;-78
2020/12/31 09:23:37;;;;;;;46.95;26.05;;;;;;;2.74;85.03;98338.66;118728;1150;65130;-78
2020/12/31 09:26:04;;;;;;;42.37;22.57;;;;;;;2.75;85.57;98343.87;118669;1150;65059;-76
2020/12/31 09:28:31;;;;;;;38.73;21.60;;;;;;;2.83;85.15;98340.89;118682;1150;66204;-77
2020/12/31 09:31:15;;;;;;;42.53;21.93;;;;;;;2.91;85.45;98351.06;119235;1151;65513;-77
2020/12/31 09:33:41;;;;;;;40.53;21.67;;;;;;;2.95;84.70;98342.08;119287;1150;65121;-79
2020/12/31 09:36:07;;;;;;;41.17;22.23;;;;;;;3.00;84.74;98337.46;119196;1150;65156;-79
2020/12/31 09:38:34;;;;;;;39.55;22.45;;;;;;;3.10;84.55;98337.89;119189;1150;65175;-78
2020/12/31 09:41:00;;;;;;;37.63;20.77;;;;;;;3.17;84.11;98341.95;119254;1150;65114;-78
2020/12/31 09:43:27;;;;;;;40.77;20.90;;;;;;;3.15;84.41;98339.37;119269;1150;65118;-78
2020/12/31 09:45:53;;;;;;;36.67;22.07;;;;;;;3.15;84.50;98346.42;118919;1150;65060;-79
2020/12/31 09:48:20;;;;;;;34.00;19.35;;;;;;;3.06;83.73;98338.04;119022;1151;65280;-78
2020/12/31 09:50:46;;;;;;;36.63;19.70;;;;;;;2.91;83.87;98330.02;119109;1150;65117;-78
2020/12/31 09:53:15;;;;;;;32.93;20.73;;;;;;;2.91;83.92;98337.91;118986;1151;65478;-77
2020/12/31 09:55:42;;;;;;;34.00;20.00;;;;;;;2.88;84.33;98331.00;119228;1150;65220;-78
2020/12/31 09:58:09;;;;;;;35.17;20.50;;;;;;;2.93;84.26;98336.06;119213;1150;65127;-77
2020/12/31 10:00:35;;;;;;;34.40;20.47;;;;;;;3.00;83.83;98317.28;119255;1150;65151;-76
2020/12/31 10:03:01;;;;;;;33.80;20.80;;;;;;;3.07;84.43;98323.94;119144;1149;65136;-77
2020/12/31 10:05:28;;;;;;;34.33;20.20;;;;;;;3.16;84.05;98322.67;119120;1150;65212;-77
2020/12/31 10:07:54;;;;;;;35.47;20.97;;;;;;;3.18;84.22;98318.16;118834;1149;65115;-77
2020/12/31 10:10:20;;;;;;;35.30;20.80;;;;;;;3.21;84.08;98304.88;119014;1151;65545;-76
2020/12/31 10:12:47;;;;;;;35.37;19.67;;;;;;;3.23;83.88;98310.05;119211;1150;65114;-77
2020/12/31 10:15:13;;;;;;;33.90;21.27;;;;;;;3.22;83.76;98309.20;118894;1150;65101;-79
2020/12/31 10:17:40;;;;;;;28.60;18.95;;;;;;;3.25;84.06;98308.20;119188;1150;65108;-77
2020/12/31 10:20:06;;;;;;;36.67;21.83;;;;;;;3.23;83.54;98304.78;119271;1150;65097;-77
2020/12/31 10:22:32;;;;;;;38.00;22.45;;;;;;;3.22;83.74;98305.72;119233;1150;65127;-77
2020/12/31 10:24:59;;;;;;;37.77;22.33;;;;;;;3.24;83.97;98295.98;119193;1150;65246;-77
2020/12/31 10:27:25;;;;;;;42.05;23.10;;;;;;;3.20;83.62;98295.25;119243;1150;65146;-77
2020/12/31 10:29:52;;;;;;;37.55;21.20;;;;;;;3.19;83.45;98293.55;119243;1151;65175;-77
2020/12/31 10:32:19;;;;;;;39.90;25.20;;;;;;;3.19;83.57;98297.98;119234;1150;65047;-77
2020/12/31 10:34:45;;;;;;;40.80;25.07;;;;;;;3.18;83.76;98288.35;119243;1151;65121;-84
2020/12/31 10:37:12;;;;;;;34.67;22.27;;;;;;;3.21;83.63;98282.94;118885;1150;65091;-78
2020/12/31 10:39:38;;;;;;;38.97;25.03;;;;;;;3.24;83.67;98283.66;118632;1150;65188;-78
2020/12/31 10:42:06;;;;;;;39.85;23.75;;;;;;;3.33;84.01;98286.77;118969;1149;65124;-80
2020/12/31 10:44:33;;;;;;;41.80;24.27;;;;;;;3.37;83.84;98283.92;119265;1151;65166;-79
2020/12/31 10:46:59;;;;;;;49.63;26.43;;;;;;;3.40;83.38;98282.91;119178;1150;65101;-78
2020/12/31 10:49:26;;;;;;;44.50;27.33;;;;;;;3.48;83.28;98271.06;119133;1150;65209;-80
2020/12/31 10:51:52;;;;;;;41.87;22.53;;;;;;;3.51;82.85;98280.59;119277;1150;65098;-79
2020/12/31 10:54:19;;;;;;;36.27;23.40;;;;;;;3.54;83.11;98269.05;119265;1150;65140;-79
2020/12/31 10:56:47;;;;;;;38.85;22.45;;;;;;;3.52;82.84;98264.69;119263;1150;65063;-78
2020/12/31 10:59:15;;;;;;;43.17;25.20;;;;;;;3.52;83.01;98269.11;119298;1149;65078;-79
2020/12/31 11:01:42;;;;;;;39.75;23.95;;;;;;;3.56;82.87;98261.93;119223;1150;65072;-78
2020/12/31 11:04:09;;;;;;;51.93;26.47;;;;;;;3.46;82.54;98267.64;119249;1150;65197;-79
2020/12/31 11:06:35;;;;;;;40.50;21.47;;;;;;;3.36;82.28;98266.39;119280;1150;65095;-78
2020/12/31 11:09:03;;;;;;;49.67;26.33;;;;;;;3.14;82.64;98255.22;119070;1150;65111;-79
2020/12/31 11:11:33;;;;;;;47.93;27.00;;;;;;;3.11;83.17;98257.97;119284;1150;65121;-77
2020/12/31 11:14:00;;;;;;;44.58;24.20;;;;;;;3.11;83.42;98252.71;119303;1150;65092;-80
2020/12/31 11:16:27;;;;;;;50.40;28.07;;;;;;;3.15;83.23;98243.75;119286;1150;65034;-80
2020/12/31 11:18:53;;;;;;;46.83;26.50;;;;;;;3.18;83.25;98247.07;119219;1150;65137;-77
2020/12/31 11:21:21;;;;;;;47.00;25.93;;;;;;;3.24;83.24;98244.16;119271;1149;65134;-80
2020/12/31 11:23:48;;;;;;;55.57;27.07;;;;;;;3.29;83.44;98236.89;119236;1150;65129;-80